Home > Products > Valid Products > TAF

000
FTUS43 KDMX 011734
TAFDSM
TAF
KDSM 011734Z 0118/0218 28008KT P6SM SCT120
     FM020900 33006KT P6SM SCT200
     FM021500 13006KT P6SM BKN150=



000
FTUS43 KDMX 011734
TAFOTM
TAF
KOTM 011734Z 0118/0218 28008KT P6SM BKN018
     FM012000 28007KT P6SM SCT120
     FM021100 32005KT P6SM BKN150
     FM021600 10005KT P6SM BKN120=



000
FTUS43 KDMX 011734
TAFFOD
TAF
KFOD 011734Z 0118/0218 29007KT P6SM BKN080
     FM020100 28004KT P6SM FEW060
     FM020800 34004KT P6SM FEW060
     FM021500 14005KT P6SM BKN150=



000
FTUS43 KDMX 011734
TAFALO
TAF
KALO 011734Z 0118/0218 28009KT P6SM FEW015 BKN120
     FM020200 29007KT P6SM FEW060
     FM021300 VRB03KT P6SM BKN180=



000
FTUS43 KDMX 011734
TAFMCW
TAF
KMCW 011734Z 0118/0218 29012KT P6SM BKN100
     FM020100 30011KT P6SM FEW060
     FM021500 15006KT P6SM BKN180=



000
FTUS43 KDMX 011734
TAFOTM
TAF
KOTM 011734Z 0118/0218 28008KT P6SM BKN018
     FM012000 28007KT P6SM SCT120
     FM021100 32005KT P6SM BKN150
     FM021600 10005KT P6SM BKN120=



000
FTUS43 KDMX 011734
TAFFOD
TAF
KFOD 011734Z 0118/0218 29007KT P6SM BKN080
     FM020100 28004KT P6SM FEW060
     FM020800 34004KT P6SM FEW060
     FM021500 14005KT P6SM BKN150=



000
FTUS43 KDMX 011734
TAFDSM
TAF
KDSM 011734Z 0118/0218 28008KT P6SM SCT120
     FM020900 33006KT P6SM SCT200
     FM021500 13006KT P6SM BKN150=



000
FTUS43 KDMX 011734
TAFALO
TAF
KALO 011734Z 0118/0218 28009KT P6SM FEW015 BKN120
     FM020200 29007KT P6SM FEW060
     FM021300 VRB03KT P6SM BKN180=



000
FTUS43 KDMX 011734
TAFMCW
TAF
KMCW 011734Z 0118/0218 29012KT P6SM BKN100
     FM020100 30011KT P6SM FEW060
     FM021500 15006KT P6SM BKN180=



000
FTUS43 KDMX 011734
TAFMCW
TAF
KMCW 011734Z 0118/0218 29012KT P6SM BKN100
     FM020100 30011KT P6SM FEW060
     FM021500 15006KT P6SM BKN180=



000
FTUS43 KDMX 011734
TAFALO
TAF
KALO 011734Z 0118/0218 28009KT P6SM FEW015 BKN120
     FM020200 29007KT P6SM FEW060
     FM021300 VRB03KT P6SM BKN180=



000
FTUS43 KDMX 011734
TAFDSM
TAF
KDSM 011734Z 0118/0218 28008KT P6SM SCT120
     FM020900 33006KT P6SM SCT200
     FM021500 13006KT P6SM BKN150=



000
FTUS43 KDMX 011734
TAFOTM
TAF
KOTM 011734Z 0118/0218 28008KT P6SM BKN018
     FM012000 28007KT P6SM SCT120
     FM021100 32005KT P6SM BKN150
     FM021600 10005KT P6SM BKN120=



000
FTUS43 KDMX 011734
TAFFOD
TAF
KFOD 011734Z 0118/0218 29007KT P6SM BKN080
     FM020100 28004KT P6SM FEW060
     FM020800 34004KT P6SM FEW060
     FM021500 14005KT P6SM BKN150=



000
FTUS43 KDMX 011734
TAFDSM
TAF
KDSM 011734Z 0118/0218 28008KT P6SM SCT120
     FM020900 33006KT P6SM SCT200
     FM021500 13006KT P6SM BKN150=



000
FTUS43 KDMX 011734
TAFOTM
TAF
KOTM 011734Z 0118/0218 28008KT P6SM BKN018
     FM012000 28007KT P6SM SCT120
     FM021100 32005KT P6SM BKN150
     FM021600 10005KT P6SM BKN120=



000
FTUS43 KDMX 011734
TAFFOD
TAF
KFOD 011734Z 0118/0218 29007KT P6SM BKN080
     FM020100 28004KT P6SM FEW060
     FM020800 34004KT P6SM FEW060
     FM021500 14005KT P6SM BKN150=



000
FTUS43 KDMX 011734
TAFMCW
TAF
KMCW 011734Z 0118/0218 29012KT P6SM BKN100
     FM020100 30011KT P6SM FEW060
     FM021500 15006KT P6SM BKN180=



000
FTUS43 KDMX 011734
TAFALO
TAF
KALO 011734Z 0118/0218 28009KT P6SM FEW015 BKN120
     FM020200 29007KT P6SM FEW060
     FM021300 VRB03KT P6SM BKN180=



000
FTUS43 KDMX 011439 AAB
TAFALO
TAF AMD
KALO 011439Z 0115/0212 24007KT 5SM BR BKN120
     FM011600 25007KT P6SM SCT022 BKN070
     FM012000 28012KT P6SM SCT025 BKN080
     FM020200 28007KT P6SM SKC=



000
FTUS43 KDMX 011439 AAB
TAFALO
TAF AMD
KALO 011439Z 0115/0212 24007KT 5SM BR BKN120
     FM011600 25007KT P6SM SCT022 BKN070
     FM012000 28012KT P6SM SCT025 BKN080
     FM020200 28007KT P6SM SKC=



000
FTUS43 KDMX 011438 AAB
TAFMCW
TAF AMD
KMCW 011438Z 0115/0212 26010KT 5SM BR SCT009 BKN120
      TEMPO 0115/0116 BKN010
     FM011600 29012KT P6SM SCT015 BKN080
     FM020000 30010KT P6SM SKC=



000
FTUS43 KDMX 011303 AAA
TAFALO
TAF AMD
KALO 011303Z 0113/0212 24007KT P6SM SCT004 SCT025
      TEMPO 0113/0115 1SM BR BKN004
     FM011600 25007KT P6SM SCT022 BKN070
     FM012000 28012KT P6SM SCT025 BKN080
     FM020200 28007KT P6SM SKC=



000
FTUS43 KDMX 011303 AAA
TAFALO
TAF AMD
KALO 011303Z 0113/0212 24007KT P6SM SCT004 SCT025
      TEMPO 0113/0115 1SM BR BKN004
     FM011600 25007KT P6SM SCT022 BKN070
     FM012000 28012KT P6SM SCT025 BKN080
     FM020200 28007KT P6SM SKC=



000
FTUS43 KDMX 011303 AAA
TAFALO
TAF AMD
KALO 011303Z 0113/0212 24007KT P6SM SCT004 SCT025
      TEMPO 0113/0115 1SM BR BKN004
     FM011600 25007KT P6SM SCT022 BKN070
     FM012000 28012KT P6SM SCT025 BKN080
     FM020200 28007KT P6SM SKC=



000
FTUS43 KDMX 011204 AAA
TAFMCW
TAF AMD
KMCW 011204Z 0112/0212 21010KT 5SM BR SCT004
      TEMPO 0112/0114 1SM BR OVC002
     FM011600 29012KT P6SM SCT015 BKN080
     FM020000 30010KT P6SM SKC=



000
FTUS43 KDMX 011204 AAA
TAFMCW
TAF AMD
KMCW 011204Z 0112/0212 21010KT 5SM BR SCT004
      TEMPO 0112/0114 1SM BR OVC002
     FM011600 29012KT P6SM SCT015 BKN080
     FM020000 30010KT P6SM SKC=



000
FTUS43 KDMX 011125
TAFALO
TAF
KALO 011125Z 0112/0212 24007KT P6SM SCT004 OVC024
     FM011600 25007KT P6SM SCT022 BKN070
     FM012000 28012KT P6SM SCT025 BKN080
     FM020200 28007KT P6SM SKC=



000
FTUS43 KDMX 011125
TAFFOD
TAF
KFOD 011125Z 0112/0212 21005KT P6SM SCT040 BKN100
     FM011700 30007KT P6SM SCT015 BKN080
     FM020200 32003KT P6SM SKC=



000
FTUS43 KDMX 011125
TAFMCW
TAF
KMCW 011125Z 0112/0212 21007KT 5SM BR SCT004
      TEMPO 0112/0114 3SM BR OVC003
     FM011600 29012KT P6SM SCT015 BKN080
     FM020000 30010KT P6SM SKC=



000
FTUS43 KDMX 011125
TAFFOD
TAF
KFOD 011125Z 0112/0212 21005KT P6SM SCT040 BKN100
     FM011700 30007KT P6SM SCT015 BKN080
     FM020200 32003KT P6SM SKC=



000
FTUS43 KDMX 011125
TAFOTM
TAF
KOTM 011125Z 0112/0212 20005KT P6SM -SN SCT005 OVC018
      TEMPO 0113/0115 3SM -SN
     FM011700 26009KT P6SM SCT015 BKN060
     FM020000 30008KT P6SM SKC=



000
FTUS43 KDMX 011125
TAFDSM
TAF
KDSM 011125Z 0112/0212 24005KT P6SM -SN OVC022
     FM011430 25007KT P6SM SCT030 BKN080
     FM012000 29012KT P6SM SCT020 BKN100
     FM020100 29006KT P6SM SKC=



000
FTUS43 KDMX 011125
TAFALO
TAF
KALO 011125Z 0112/0212 24007KT P6SM SCT004 OVC024
     FM011600 25007KT P6SM SCT022 BKN070
     FM012000 28012KT P6SM SCT025 BKN080
     FM020200 28007KT P6SM SKC=



000
FTUS43 KDMX 011125
TAFMCW
TAF
KMCW 011125Z 0112/0212 21007KT 5SM BR SCT004
      TEMPO 0112/0114 3SM BR OVC003
     FM011600 29012KT P6SM SCT015 BKN080
     FM020000 30010KT P6SM SKC=



000
FTUS43 KDMX 011125
TAFOTM
TAF
KOTM 011125Z 0112/0212 20005KT P6SM -SN SCT005 OVC018
      TEMPO 0113/0115 3SM -SN
     FM011700 26009KT P6SM SCT015 BKN060
     FM020000 30008KT P6SM SKC=



000
FTUS43 KDMX 011125
TAFDSM
TAF
KDSM 011125Z 0112/0212 24005KT P6SM -SN OVC022
     FM011430 25007KT P6SM SCT030 BKN080
     FM012000 29012KT P6SM SCT020 BKN100
     FM020100 29006KT P6SM SKC=



000
FTUS43 KDMX 011010 AAA
TAFMCW
TAF AMD
KMCW 011010Z 0110/0206 18006KT 4SM BR OVC026
      TEMPO 0110/0112 3SM BR OVC004
     FM011200 21008KT P6SM SCT008 BKN050
     FM011700 29011G15KT P6SM SCT015 BKN080
     FM020200 30010KT P6SM SKC=



000
FTUS43 KDMX 011010 AAA
TAFMCW
TAF AMD
KMCW 011010Z 0110/0206 18006KT 4SM BR OVC026
      TEMPO 0110/0112 3SM BR OVC004
     FM011200 21008KT P6SM SCT008 BKN050
     FM011700 29011G15KT P6SM SCT015 BKN080
     FM020200 30010KT P6SM SKC=



000
FTUS43 KDMX 011010 AAA
TAFMCW
TAF AMD
KMCW 011010Z 0110/0206 18006KT 4SM BR OVC026
      TEMPO 0110/0112 3SM BR OVC004
     FM011200 21008KT P6SM SCT008 BKN050
     FM011700 29011G15KT P6SM SCT015 BKN080
     FM020200 30010KT P6SM SKC=



000
FTUS43 KDMX 011010 AAA
TAFMCW
TAF AMD
KMCW 011010Z 0110/0206 18006KT 4SM BR OVC026
      TEMPO 0110/0112 3SM BR OVC004
     FM011200 21008KT P6SM SCT008 BKN050
     FM011700 29011G15KT P6SM SCT015 BKN080
     FM020200 30010KT P6SM SKC=



000
FTUS43 KDMX 010801 AAB
TAFOTM
TAF AMD
KOTM 010801Z 0108/0206 VRB04KT 4SM -SN BR BKN004 OVC018
     FM011100 20005KT P6SM SCT005 OVC018
     FM011700 27007KT P6SM SCT015 BKN080
     FM020200 30008KT P6SM SKC=



000
FTUS43 KDMX 010801 AAB
TAFOTM
TAF AMD
KOTM 010801Z 0108/0206 VRB04KT 4SM -SN BR BKN004 OVC018
     FM011100 20005KT P6SM SCT005 OVC018
     FM011700 27007KT P6SM SCT015 BKN080
     FM020200 30008KT P6SM SKC=



000
FTUS43 KDMX 010801 AAB
TAFOTM
TAF AMD
KOTM 010801Z 0108/0206 VRB04KT 4SM -SN BR BKN004 OVC018
     FM011100 20005KT P6SM SCT005 OVC018
     FM011700 27007KT P6SM SCT015 BKN080
     FM020200 30008KT P6SM SKC=



000
FTUS43 KDMX 010801 AAB
TAFOTM
TAF AMD
KOTM 010801Z 0108/0206 VRB04KT 4SM -SN BR BKN004 OVC018
     FM011100 20005KT P6SM SCT005 OVC018
     FM011700 27007KT P6SM SCT015 BKN080
     FM020200 30008KT P6SM SKC=



000
FTUS43 KDMX 010544 AAA
TAFOTM
TAF AMD
KOTM 010544Z 0106/0206 11003KT 1 1/2SM BR SCT025
     FM010700 15007KT 6SM -SN SCT016 OVC025
     FM011400 24006KT P6SM OVC018
     FM011700 27007KT P6SM SCT015 BKN080
     FM012100 28007G12KT P6SM SCT080 BKN110
     FM020200 30008KT P6SM SKC=



000
FTUS43 KDMX 010544 AAA
TAFOTM
TAF AMD
KOTM 010544Z 0106/0206 11003KT 1 1/2SM BR SCT025
     FM010700 15007KT 6SM -SN SCT016 OVC025
     FM011400 24006KT P6SM OVC018
     FM011700 27007KT P6SM SCT015 BKN080
     FM012100 28007G12KT P6SM SCT080 BKN110
     FM020200 30008KT P6SM SKC=



000
FTUS43 KDMX 010544 AAA
TAFOTM
TAF AMD
KOTM 010544Z 0106/0206 11003KT 1 1/2SM BR SCT025
     FM010700 15007KT 6SM -SN SCT016 OVC025
     FM011400 24006KT P6SM OVC018
     FM011700 27007KT P6SM SCT015 BKN080
     FM012100 28007G12KT P6SM SCT080 BKN110
     FM020200 30008KT P6SM SKC=



000
FTUS43 KDMX 010544 AAA
TAFOTM
TAF AMD
KOTM 010544Z 0106/0206 11003KT 1 1/2SM BR SCT025
     FM010700 15007KT 6SM -SN SCT016 OVC025
     FM011400 24006KT P6SM OVC018
     FM011700 27007KT P6SM SCT015 BKN080
     FM012100 28007G12KT P6SM SCT080 BKN110
     FM020200 30008KT P6SM SKC=



000
FTUS43 KDMX 010527
TAFDSM
TAF
KDSM 010527Z 0106/0206 16006KT 6SM -SN BR OVC024
     FM011000 21007KT P6SM BKN030
     FM011600 26007KT P6SM SCT030 BKN080
     FM012100 28009G13KT P6SM SCT100
     FM020100 30007KT P6SM SKC=



000
FTUS43 KDMX 010527
TAFFOD
TAF
KFOD 010527Z 0106/0206 14006KT P6SM FEW016 OVC027
     FM010800 19006KT P6SM SCT020 BKN050
     FM011500 24006KT P6SM BKN110
     FM011700 29007KT P6SM SCT015 BKN080
     FM012200 29009G14KT P6SM SCT080
     FM020200 32003KT P6SM SKC=



000
FTUS43 KDMX 010527
TAFOTM
TAF
KOTM 010527Z 0106/0206 11003KT P6SM SCT025
     FM010700 15007KT 6SM -SN SCT016 OVC025
     FM011400 24006KT P6SM OVC018
     FM011700 27007KT P6SM SCT015 BKN080
     FM012100 28007G12KT P6SM SCT080 BKN110
     FM020200 30008KT P6SM SKC=



000
FTUS43 KDMX 010527
TAFMCW
TAF
KMCW 010527Z 0106/0206 17008KT 4SM BR OVC026
     FM011100 21008KT P6SM SCT008 BKN040
     FM011300 26009KT P6SM SCT080 BKN110
     FM011700 29011G15KT P6SM SCT015 BKN080
     FM020200 30010KT P6SM SKC=



000
FTUS43 KDMX 010527
TAFALO
TAF
KALO 010527Z 0106/0206 14007KT 4SM -SN OVC025
     FM010900 24007KT P6SM OVC022
     FM011600 29007KT P6SM SCT022 BKN080
     FM012000 28010G16KT P6SM SCT080
     FM020200 29007KT P6SM SKC=



000
FTUS43 KDMX 010527
TAFFOD
TAF
KFOD 010527Z 0106/0206 14006KT P6SM FEW016 OVC027
     FM010800 19006KT P6SM SCT020 BKN050
     FM011500 24006KT P6SM BKN110
     FM011700 29007KT P6SM SCT015 BKN080
     FM012200 29009G14KT P6SM SCT080
     FM020200 32003KT P6SM SKC=



000
FTUS43 KDMX 010527
TAFOTM
TAF
KOTM 010527Z 0106/0206 11003KT P6SM SCT025
     FM010700 15007KT 6SM -SN SCT016 OVC025
     FM011400 24006KT P6SM OVC018
     FM011700 27007KT P6SM SCT015 BKN080
     FM012100 28007G12KT P6SM SCT080 BKN110
     FM020200 30008KT P6SM SKC=



000
FTUS43 KDMX 010527
TAFMCW
TAF
KMCW 010527Z 0106/0206 17008KT 4SM BR OVC026
     FM011100 21008KT P6SM SCT008 BKN040
     FM011300 26009KT P6SM SCT080 BKN110
     FM011700 29011G15KT P6SM SCT015 BKN080
     FM020200 30010KT P6SM SKC=



000
FTUS43 KDMX 010527
TAFALO
TAF
KALO 010527Z 0106/0206 14007KT 4SM -SN OVC025
     FM010900 24007KT P6SM OVC022
     FM011600 29007KT P6SM SCT022 BKN080
     FM012000 28010G16KT P6SM SCT080
     FM020200 29007KT P6SM SKC=



000
FTUS43 KDMX 010527
TAFDSM
TAF
KDSM 010527Z 0106/0206 16006KT 6SM -SN BR OVC024
     FM011000 21007KT P6SM BKN030
     FM011600 26007KT P6SM SCT030 BKN080
     FM012100 28009G13KT P6SM SCT100
     FM020100 30007KT P6SM SKC=



000
FTUS43 KDMX 010527
TAFFOD
TAF
KFOD 010527Z 0106/0206 14006KT P6SM FEW016 OVC027
     FM010800 19006KT P6SM SCT020 BKN050
     FM011500 24006KT P6SM BKN110
     FM011700 29007KT P6SM SCT015 BKN080
     FM012200 29009G14KT P6SM SCT080
     FM020200 32003KT P6SM SKC=



000
FTUS43 KDMX 010527
TAFALO
TAF
KALO 010527Z 0106/0206 14007KT 4SM -SN OVC025
     FM010900 24007KT P6SM OVC022
     FM011600 29007KT P6SM SCT022 BKN080
     FM012000 28010G16KT P6SM SCT080
     FM020200 29007KT P6SM SKC=



000
FTUS43 KDMX 010527
TAFOTM
TAF
KOTM 010527Z 0106/0206 11003KT P6SM SCT025
     FM010700 15007KT 6SM -SN SCT016 OVC025
     FM011400 24006KT P6SM OVC018
     FM011700 27007KT P6SM SCT015 BKN080
     FM012100 28007G12KT P6SM SCT080 BKN110
     FM020200 30008KT P6SM SKC=



000
FTUS43 KDMX 010527
TAFMCW
TAF
KMCW 010527Z 0106/0206 17008KT 4SM BR OVC026
     FM011100 21008KT P6SM SCT008 BKN040
     FM011300 26009KT P6SM SCT080 BKN110
     FM011700 29011G15KT P6SM SCT015 BKN080
     FM020200 30010KT P6SM SKC=



000
FTUS43 KDMX 010527
TAFDSM
TAF
KDSM 010527Z 0106/0206 16006KT 6SM -SN BR OVC024
     FM011000 21007KT P6SM BKN030
     FM011600 26007KT P6SM SCT030 BKN080
     FM012100 28009G13KT P6SM SCT100
     FM020100 30007KT P6SM SKC=



000
FTUS43 KDMX 010527
TAFFOD
TAF
KFOD 010527Z 0106/0206 14006KT P6SM FEW016 OVC027
     FM010800 19006KT P6SM SCT020 BKN050
     FM011500 24006KT P6SM BKN110
     FM011700 29007KT P6SM SCT015 BKN080
     FM012200 29009G14KT P6SM SCT080
     FM020200 32003KT P6SM SKC=



000
FTUS43 KDMX 010527
TAFOTM
TAF
KOTM 010527Z 0106/0206 11003KT P6SM SCT025
     FM010700 15007KT 6SM -SN SCT016 OVC025
     FM011400 24006KT P6SM OVC018
     FM011700 27007KT P6SM SCT015 BKN080
     FM012100 28007G12KT P6SM SCT080 BKN110
     FM020200 30008KT P6SM SKC=



000
FTUS43 KDMX 010527
TAFALO
TAF
KALO 010527Z 0106/0206 14007KT 4SM -SN OVC025
     FM010900 24007KT P6SM OVC022
     FM011600 29007KT P6SM SCT022 BKN080
     FM012000 28010G16KT P6SM SCT080
     FM020200 29007KT P6SM SKC=



000
FTUS43 KDMX 010527
TAFDSM
TAF
KDSM 010527Z 0106/0206 16006KT 6SM -SN BR OVC024
     FM011000 21007KT P6SM BKN030
     FM011600 26007KT P6SM SCT030 BKN080
     FM012100 28009G13KT P6SM SCT100
     FM020100 30007KT P6SM SKC=



000
FTUS43 KDMX 010527
TAFMCW
TAF
KMCW 010527Z 0106/0206 17008KT 4SM BR OVC026
     FM011100 21008KT P6SM SCT008 BKN040
     FM011300 26009KT P6SM SCT080 BKN110
     FM011700 29011G15KT P6SM SCT015 BKN080
     FM020200 30010KT P6SM SKC=



000
FTUS43 KDMX 010449 AAD
TAFMCW
TAF AMD
KMCW 010449Z 0105/0124 16011KT 4SM -SN SCT008 BKN025
     FM010700 16011KT P6SM SCT008 BKN025
     FM011100 21008KT P6SM SCT008 BKN040
     FM011500 26009KT P6SM BKN110
     FM011700 29007KT P6SM SCT015 BKN080
     FM012100 29013G19KT P6SM SCT080=



000
FTUS43 KDMX 010449 AAD
TAFMCW
TAF AMD
KMCW 010449Z 0105/0124 16011KT 4SM -SN SCT008 BKN025
     FM010700 16011KT P6SM SCT008 BKN025
     FM011100 21008KT P6SM SCT008 BKN040
     FM011500 26009KT P6SM BKN110
     FM011700 29007KT P6SM SCT015 BKN080
     FM012100 29013G19KT P6SM SCT080=



000
FTUS43 KDMX 010340 AAC
TAFMCW
TAF AMD
KMCW 010340Z 0104/0124 17008KT P6SM BKN008
     FM011100 21008KT P6SM SCT008 BKN040
     FM011500 26009KT P6SM BKN110
     FM011700 29007KT P6SM SCT015 BKN080
     FM012100 29013G19KT P6SM SCT080=



000
FTUS43 KDMX 010340 AAC
TAFMCW
TAF AMD
KMCW 010340Z 0104/0124 17008KT P6SM BKN008
     FM011100 21008KT P6SM SCT008 BKN040
     FM011500 26009KT P6SM BKN110
     FM011700 29007KT P6SM SCT015 BKN080
     FM012100 29013G19KT P6SM SCT080=



000
FTUS43 KDMX 010242 AAB
TAFMCW
TAF AMD
KMCW 010242Z 0103/0124 15010KT P6SM SCT025 BKN070
     FM010315 16011KT P6SM BKN025
     FM011100 21008KT P6SM SCT025 BKN040
     FM011500 26009KT P6SM BKN110
     FM011700 29007KT P6SM SCT015 BKN080
     FM012100 29013G19KT P6SM SCT080=



000
FTUS43 KDMX 010242 AAB
TAFMCW
TAF AMD
KMCW 010242Z 0103/0124 15010KT P6SM SCT025 BKN070
     FM010315 16011KT P6SM BKN025
     FM011100 21008KT P6SM SCT025 BKN040
     FM011500 26009KT P6SM BKN110
     FM011700 29007KT P6SM SCT015 BKN080
     FM012100 29013G19KT P6SM SCT080=



000
FTUS43 KDMX 010242 AAB
TAFFOD
TAF AMD
KFOD 010242Z 0103/0124 14006KT P6SM FEW016 OVC024
     FM010700 19006KT P6SM SCT020 BKN050
     FM011500 24006KT P6SM BKN120
     FM011700 29007KT P6SM SCT015 BKN080
     FM012300 29009G14KT P6SM SCT080=



000
FTUS43 KDMX 010242 AAB
TAFFOD
TAF AMD
KFOD 010242Z 0103/0124 14006KT P6SM FEW016 OVC024
     FM010700 19006KT P6SM SCT020 BKN050
     FM011500 24006KT P6SM BKN120
     FM011700 29007KT P6SM SCT015 BKN080
     FM012300 29009G14KT P6SM SCT080=



000
FTUS43 KDMX 010241 AAC
TAFOTM
TAF AMD
KOTM 010241Z 0103/0124 13007KT P6SM SCT025
     FM010400 15008KT P6SM OVC028
     FM011400 24006KT P6SM OVC018
     FM011700 26007KT P6SM SCT015 BKN080
     FM012300 28007G12KT P6SM SCT080 BKN120=



000
FTUS43 KDMX 010241 AAC
TAFOTM
TAF AMD
KOTM 010241Z 0103/0124 13007KT P6SM SCT025
     FM010400 15008KT P6SM OVC028
     FM011400 24006KT P6SM OVC018
     FM011700 26007KT P6SM SCT015 BKN080
     FM012300 28007G12KT P6SM SCT080 BKN120=



000
FTUS43 KDMX 010204 AAA
TAFFOD
TAF AMD
KFOD 010204Z 0102/0124 14006KT P6SM BKN016 OVC024
     FM010600 19006KT P6SM SCT020 BKN050
     FM011500 24006KT P6SM BKN120
     FM011700 29007KT P6SM SCT015 BKN080
     FM012300 29009G14KT P6SM SCT080=



000
FTUS43 KDMX 010204 AAA
TAFFOD
TAF AMD
KFOD 010204Z 0102/0124 14006KT P6SM BKN016 OVC024
     FM010600 19006KT P6SM SCT020 BKN050
     FM011500 24006KT P6SM BKN120
     FM011700 29007KT P6SM SCT015 BKN080
     FM012300 29009G14KT P6SM SCT080=



000
FTUS43 KDMX 010203 AAB
TAFALO
TAF AMD
KALO 010203Z 0102/0124 14006KT P6SM SCT022 BKN040
     FM010300 14007KT P6SM OVC022
     FM011500 24007KT P6SM OVC020
     FM011600 29007KT P6SM SCT015 BKN080
     FM012100 28010G16KT P6SM SCT080=



000
FTUS43 KDMX 010203 AAB
TAFALO
TAF AMD
KALO 010203Z 0102/0124 14006KT P6SM SCT022 BKN040
     FM010300 14007KT P6SM OVC022
     FM011500 24007KT P6SM OVC020
     FM011600 29007KT P6SM SCT015 BKN080
     FM012100 28010G16KT P6SM SCT080=



000
FTUS43 KDMX 010203 AAB
TAFALO
TAF AMD
KALO 010203Z 0102/0124 14006KT P6SM SCT022 BKN040
     FM010300 14007KT P6SM OVC022
     FM011500 24007KT P6SM OVC020
     FM011600 29007KT P6SM SCT015 BKN080
     FM012100 28010G16KT P6SM SCT080=



000
FTUS43 KDMX 010203 AAB
TAFALO
TAF AMD
KALO 010203Z 0102/0124 14006KT P6SM SCT022 BKN040
     FM010300 14007KT P6SM OVC022
     FM011500 24007KT P6SM OVC020
     FM011600 29007KT P6SM SCT015 BKN080
     FM012100 28010G16KT P6SM SCT080=



000
FTUS43 KDMX 010115 AAB
TAFOTM
TAF AMD
KOTM 010115Z 0101/0124 15008KT P6SM OVC028
     FM011400 24006KT P6SM OVC018
     FM011700 26007KT P6SM SCT015 BKN080
     FM012300 28007G12KT P6SM SCT080 BKN120=



000
FTUS43 KDMX 010115 AAB
TAFOTM
TAF AMD
KOTM 010115Z 0101/0124 15008KT P6SM OVC028
     FM011400 24006KT P6SM OVC018
     FM011700 26007KT P6SM SCT015 BKN080
     FM012300 28007G12KT P6SM SCT080 BKN120=



000
FTUS43 KDMX 010114 AAA
TAFMCW
TAF AMD
KMCW 010114Z 0101/0124 15010KT P6SM SCT025 BKN070
     FM010200 16011KT P6SM BKN025
     FM011100 21008KT P6SM SCT025 BKN040
     FM011500 26009KT P6SM BKN110
     FM011700 29007KT P6SM SCT015 BKN080
     FM012100 29013G19KT P6SM SCT080=



000
FTUS43 KDMX 010114 AAA
TAFMCW
TAF AMD
KMCW 010114Z 0101/0124 15010KT P6SM SCT025 BKN070
     FM010200 16011KT P6SM BKN025
     FM011100 21008KT P6SM SCT025 BKN040
     FM011500 26009KT P6SM BKN110
     FM011700 29007KT P6SM SCT015 BKN080
     FM012100 29013G19KT P6SM SCT080=



000
FTUS43 KDMX 010114 AAB
TAFDSM
TAF AMD
KDSM 010114Z 0101/0124 12005KT 6SM -SN BKN015 BKN035
     FM010200 16007KT P6SM SCT016 OVC025
     FM011500 25008KT P6SM BKN030
     FM011600 26007KT P6SM SCT015 BKN080
     FM012100 28009G13KT P6SM SCT080=



000
FTUS43 KDMX 010114 AAB
TAFDSM
TAF AMD
KDSM 010114Z 0101/0124 12005KT 6SM -SN BKN015 BKN035
     FM010200 16007KT P6SM SCT016 OVC025
     FM011500 25008KT P6SM BKN030
     FM011600 26007KT P6SM SCT015 BKN080
     FM012100 28009G13KT P6SM SCT080=



000
FTUS43 KDMX 010114 AAB
TAFDSM
TAF AMD
KDSM 010114Z 0101/0124 12005KT 6SM -SN BKN015 BKN035
     FM010200 16007KT P6SM SCT016 OVC025
     FM011500 25008KT P6SM BKN030
     FM011600 26007KT P6SM SCT015 BKN080
     FM012100 28009G13KT P6SM SCT080=



000
FTUS43 KDMX 010113 AAA
TAFALO
TAF AMD
KALO 010113Z 0101/0124 14006KT 4SM -SN SCT022 BKN040
     FM010300 14007KT P6SM OVC022
     FM011500 24007KT P6SM OVC020
     FM011600 29007KT P6SM SCT015 BKN080
     FM012100 28010G16KT P6SM SCT080=



000
FTUS43 KDMX 010113 AAA
TAFALO
TAF AMD
KALO 010113Z 0101/0124 14006KT 4SM -SN SCT022 BKN040
     FM010300 14007KT P6SM OVC022
     FM011500 24007KT P6SM OVC020
     FM011600 29007KT P6SM SCT015 BKN080
     FM012100 28010G16KT P6SM SCT080=



000
FTUS43 KDMX 010113 AAA
TAFALO
TAF AMD
KALO 010113Z 0101/0124 14006KT 4SM -SN SCT022 BKN040
     FM010300 14007KT P6SM OVC022
     FM011500 24007KT P6SM OVC020
     FM011600 29007KT P6SM SCT015 BKN080
     FM012100 28010G16KT P6SM SCT080=



000
FTUS43 KDMX 010014 AAA
TAFDSM
TAF AMD
KDSM 010014Z 0100/0124 15005KT 4SM -SN SCT010 BKN035
     FM010100 16007KT P6SM SCT016 OVC025
     FM011500 25008KT P6SM BKN030
     FM011600 26007KT P6SM SCT015 BKN080
     FM012100 28009G13KT P6SM SCT080=



000
FTUS43 KDMX 010014 AAA
TAFDSM
TAF AMD
KDSM 010014Z 0100/0124 15005KT 4SM -SN SCT010 BKN035
     FM010100 16007KT P6SM SCT016 OVC025
     FM011500 25008KT P6SM BKN030
     FM011600 26007KT P6SM SCT015 BKN080
     FM012100 28009G13KT P6SM SCT080=



000
FTUS43 KDMX 010014 AAA
TAFDSM
TAF AMD
KDSM 010014Z 0100/0124 15005KT 4SM -SN SCT010 BKN035
     FM010100 16007KT P6SM SCT016 OVC025
     FM011500 25008KT P6SM BKN030
     FM011600 26007KT P6SM SCT015 BKN080
     FM012100 28009G13KT P6SM SCT080=



000
FTUS43 KDMX 010014 AAA
TAFOTM
TAF AMD
KOTM 010014Z 0100/0124 14008KT 2SM -SN SCT015 OVC028
     FM010100 15008KT P6SM OVC028
     FM011400 24006KT P6SM OVC018
     FM011700 26007KT P6SM SCT015 BKN080
     FM012300 28007G12KT P6SM SCT080 BKN120=



000
FTUS43 KDMX 010014 AAA
TAFDSM
TAF AMD
KDSM 010014Z 0100/0124 15005KT 4SM -SN SCT010 BKN035
     FM010100 16007KT P6SM SCT016 OVC025
     FM011500 25008KT P6SM BKN030
     FM011600 26007KT P6SM SCT015 BKN080
     FM012100 28009G13KT P6SM SCT080=



000
FTUS43 KDMX 010014 AAA
TAFOTM
TAF AMD
KOTM 010014Z 0100/0124 14008KT 2SM -SN SCT015 OVC028
     FM010100 15008KT P6SM OVC028
     FM011400 24006KT P6SM OVC018
     FM011700 26007KT P6SM SCT015 BKN080
     FM012300 28007G12KT P6SM SCT080 BKN120=



000
FTUS43 KDMX 282343
TAFDSM
TAF
KDSM 282343Z 0100/0124 16007KT 2SM -SN SCT010 BKN028
     FM010100 16007KT P6SM SCT016 OVC025
     FM011500 25008KT P6SM BKN030
     FM011600 26007KT P6SM SCT015 BKN080
     FM012100 28009G13KT P6SM SCT080=



000
FTUS43 KDMX 282343
TAFDSM
TAF
KDSM 282343Z 0100/0124 16007KT 2SM -SN SCT010 BKN028
     FM010100 16007KT P6SM SCT016 OVC025
     FM011500 25008KT P6SM BKN030
     FM011600 26007KT P6SM SCT015 BKN080
     FM012100 28009G13KT P6SM SCT080=



000
FTUS43 KDMX 282343
TAFALO
TAF
KALO 282343Z 0100/0124 14006KT P6SM SCT022 BKN040
     FM010100 16008KT P6SM OVC022
     FM011500 24007KT P6SM OVC020
     FM011600 29007KT P6SM SCT015 BKN080
     FM012100 28010G16KT P6SM SCT080=



000
FTUS43 KDMX 282343
TAFALO
TAF
KALO 282343Z 0100/0124 14006KT P6SM SCT022 BKN040
     FM010100 16008KT P6SM OVC022
     FM011500 24007KT P6SM OVC020
     FM011600 29007KT P6SM SCT015 BKN080
     FM012100 28010G16KT P6SM SCT080=



000
FTUS43 KDMX 282343
TAFOTM
TAF
KOTM 282343Z 0100/0124 14008KT 1 1/2SM -SN SCT015 OVC022
     FM010100 15008KT P6SM OVC025
     FM011400 24006KT P6SM OVC018
     FM011700 26007KT P6SM SCT015 BKN080
     FM012300 28007G12KT P6SM SCT080 BKN120=



000
FTUS43 KDMX 282343
TAFMCW
TAF
KMCW 282343Z 0100/0124 16012KT P6SM SCT025 BKN070
     FM010100 16011KT P6SM BKN025
     FM011100 21008KT P6SM SCT025 BKN040
     FM011500 26009KT P6SM BKN110
     FM011700 29007KT P6SM SCT015 BKN080
     FM012100 29013G19KT P6SM SCT080=



000
FTUS43 KDMX 282343
TAFOTM
TAF
KOTM 282343Z 0100/0124 14008KT 1 1/2SM -SN SCT015 OVC022
     FM010100 15008KT P6SM OVC025
     FM011400 24006KT P6SM OVC018
     FM011700 26007KT P6SM SCT015 BKN080
     FM012300 28007G12KT P6SM SCT080 BKN120=



000
FTUS43 KDMX 282343
TAFMCW
TAF
KMCW 282343Z 0100/0124 16012KT P6SM SCT025 BKN070
     FM010100 16011KT P6SM BKN025
     FM011100 21008KT P6SM SCT025 BKN040
     FM011500 26009KT P6SM BKN110
     FM011700 29007KT P6SM SCT015 BKN080
     FM012100 29013G19KT P6SM SCT080=



000
FTUS43 KDMX 282343
TAFFOD
TAF
KFOD 282343Z 0100/0124 16008KT P6SM OVC022
     FM010600 19006KT P6SM SCT020 BKN050
     FM011500 24006KT P6SM BKN120
     FM011700 29007KT P6SM SCT015 BKN080
     FM012300 29009G14KT P6SM SCT080=



000
FTUS43 KDMX 282343
TAFOTM
TAF
KOTM 282343Z 0100/0124 14008KT 1 1/2SM -SN SCT015 OVC022
     FM010100 15008KT P6SM OVC025
     FM011400 24006KT P6SM OVC018
     FM011700 26007KT P6SM SCT015 BKN080
     FM012300 28007G12KT P6SM SCT080 BKN120=



000
FTUS43 KDMX 282343
TAFMCW
TAF
KMCW 282343Z 0100/0124 16012KT P6SM SCT025 BKN070
     FM010100 16011KT P6SM BKN025
     FM011100 21008KT P6SM SCT025 BKN040
     FM011500 26009KT P6SM BKN110
     FM011700 29007KT P6SM SCT015 BKN080
     FM012100 29013G19KT P6SM SCT080=



000
FTUS43 KDMX 282343
TAFFOD
TAF
KFOD 282343Z 0100/0124 16008KT P6SM OVC022
     FM010600 19006KT P6SM SCT020 BKN050
     FM011500 24006KT P6SM BKN120
     FM011700 29007KT P6SM SCT015 BKN080
     FM012300 29009G14KT P6SM SCT080=



000
FTUS43 KDMX 282343
TAFDSM
TAF
KDSM 282343Z 0100/0124 16007KT 2SM -SN SCT010 BKN028
     FM010100 16007KT P6SM SCT016 OVC025
     FM011500 25008KT P6SM BKN030
     FM011600 26007KT P6SM SCT015 BKN080
     FM012100 28009G13KT P6SM SCT080=



000
FTUS43 KDMX 282343
TAFALO
TAF
KALO 282343Z 0100/0124 14006KT P6SM SCT022 BKN040
     FM010100 16008KT P6SM OVC022
     FM011500 24007KT P6SM OVC020
     FM011600 29007KT P6SM SCT015 BKN080
     FM012100 28010G16KT P6SM SCT080=



000
FTUS43 KDMX 282343
TAFALO
TAF
KALO 282343Z 0100/0124 14006KT P6SM SCT022 BKN040
     FM010100 16008KT P6SM OVC022
     FM011500 24007KT P6SM OVC020
     FM011600 29007KT P6SM SCT015 BKN080
     FM012100 28010G16KT P6SM SCT080=



000
FTUS43 KDMX 282343
TAFFOD
TAF
KFOD 282343Z 0100/0124 16008KT P6SM OVC022
     FM010600 19006KT P6SM SCT020 BKN050
     FM011500 24006KT P6SM BKN120
     FM011700 29007KT P6SM SCT015 BKN080
     FM012300 29009G14KT P6SM SCT080=



000
FTUS43 KDMX 282343
TAFMCW
TAF
KMCW 282343Z 0100/0124 16012KT P6SM SCT025 BKN070
     FM010100 16011KT P6SM BKN025
     FM011100 21008KT P6SM SCT025 BKN040
     FM011500 26009KT P6SM BKN110
     FM011700 29007KT P6SM SCT015 BKN080
     FM012100 29013G19KT P6SM SCT080=



000
FTUS43 KDMX 282343
TAFDSM
TAF
KDSM 282343Z 0100/0124 16007KT 2SM -SN SCT010 BKN028
     FM010100 16007KT P6SM SCT016 OVC025
     FM011500 25008KT P6SM BKN030
     FM011600 26007KT P6SM SCT015 BKN080
     FM012100 28009G13KT P6SM SCT080=



000
FTUS43 KDMX 282343
TAFOTM
TAF
KOTM 282343Z 0100/0124 14008KT 1 1/2SM -SN SCT015 OVC022
     FM010100 15008KT P6SM OVC025
     FM011400 24006KT P6SM OVC018
     FM011700 26007KT P6SM SCT015 BKN080
     FM012300 28007G12KT P6SM SCT080 BKN120=



000
FTUS43 KDMX 282343
TAFFOD
TAF
KFOD 282343Z 0100/0124 16008KT P6SM OVC022
     FM010600 19006KT P6SM SCT020 BKN050
     FM011500 24006KT P6SM BKN120
     FM011700 29007KT P6SM SCT015 BKN080
     FM012300 29009G14KT P6SM SCT080=



000
FTUS43 KDMX 282302 AAA
TAFMCW
TAF AMD
KMCW 282302Z 2823/0118 16012KT P6SM SCT025 BKN070
     FM010100 16011KT P6SM BKN025
     FM010800 21008KT P6SM SCT025 BKN040
     FM011500 26009KT P6SM BKN120=



000
FTUS43 KDMX 282302 AAA
TAFMCW
TAF AMD
KMCW 282302Z 2823/0118 16012KT P6SM SCT025 BKN070
     FM010100 16011KT P6SM BKN025
     FM010800 21008KT P6SM SCT025 BKN040
     FM011500 26009KT P6SM BKN120=



000
FTUS43 KDMX 282302 AAA
TAFMCW
TAF AMD
KMCW 282302Z 2823/0118 16012KT P6SM SCT025 BKN070
     FM010100 16011KT P6SM BKN025
     FM010800 21008KT P6SM SCT025 BKN040
     FM011500 26009KT P6SM BKN120=



000
FTUS43 KDMX 282302 AAA
TAFMCW
TAF AMD
KMCW 282302Z 2823/0118 16012KT P6SM SCT025 BKN070
     FM010100 16011KT P6SM BKN025
     FM010800 21008KT P6SM SCT025 BKN040
     FM011500 26009KT P6SM BKN120=



000
FTUS43 KDMX 282301 AAA
TAFALO
TAF AMD
KALO 282301Z 2823/0118 15010KT P6SM SCT022 BKN040
     FM010100 16008KT P6SM OVC022
     FM011500 24007KT P6SM OVC020=



000
FTUS43 KDMX 282301 AAA
TAFALO
TAF AMD
KALO 282301Z 2823/0118 15010KT P6SM SCT022 BKN040
     FM010100 16008KT P6SM OVC022
     FM011500 24007KT P6SM OVC020=



000
FTUS43 KDMX 282301 AAA
TAFALO
TAF AMD
KALO 282301Z 2823/0118 15010KT P6SM SCT022 BKN040
     FM010100 16008KT P6SM OVC022
     FM011500 24007KT P6SM OVC020=



000
FTUS43 KDMX 282301 AAA
TAFALO
TAF AMD
KALO 282301Z 2823/0118 15010KT P6SM SCT022 BKN040
     FM010100 16008KT P6SM OVC022
     FM011500 24007KT P6SM OVC020=



000
FTUS43 KDMX 282255 AAC
TAFDSM
TAF AMD
KDSM 282255Z 2823/0118 16007KT 1SM -SN BKN018 OVC029
     FM010100 16007KT P6SM SCT016 OVC025
     FM011500 25008KT P6SM BKN030=



000
FTUS43 KDMX 282255 AAC
TAFDSM
TAF AMD
KDSM 282255Z 2823/0118 16007KT 1SM -SN BKN018 OVC029
     FM010100 16007KT P6SM SCT016 OVC025
     FM011500 25008KT P6SM BKN030=



000
FTUS43 KDMX 282223 AAB
TAFDSM
TAF AMD
KDSM 282223Z 2822/0118 16007KT 3/4SM -SN VV016 OVC040
     FM010100 16007KT P6SM SCT016 OVC025
     FM011500 25008KT P6SM BKN030=



000
FTUS43 KDMX 282223 AAB
TAFDSM
TAF AMD
KDSM 282223Z 2822/0118 16007KT 3/4SM -SN VV016 OVC040
     FM010100 16007KT P6SM SCT016 OVC025
     FM011500 25008KT P6SM BKN030=



000
FTUS43 KDMX 282223 AAB
TAFDSM
TAF AMD
KDSM 282223Z 2822/0118 16007KT 3/4SM -SN VV016 OVC040
     FM010100 16007KT P6SM SCT016 OVC025
     FM011500 25008KT P6SM BKN030=



000
FTUS43 KDMX 282223 AAB
TAFDSM
TAF AMD
KDSM 282223Z 2822/0118 16007KT 3/4SM -SN VV016 OVC040
     FM010100 16007KT P6SM SCT016 OVC025
     FM011500 25008KT P6SM BKN030=



000
FTUS43 KDMX 282140 AAA
TAFDSM
TAF AMD
KDSM 282140Z 2822/0118 17008KT 2SM -SN BKN025 OVC040
     FM010100 16007KT P6SM OVC025
     FM011500 25008KT P6SM BKN030=



000
FTUS43 KDMX 282140 AAA
TAFDSM
TAF AMD
KDSM 282140Z 2822/0118 17008KT 2SM -SN BKN025 OVC040
     FM010100 16007KT P6SM OVC025
     FM011500 25008KT P6SM BKN030=



000
FTUS43 KDMX 282122 AAB
TAFOTM
TAF AMD
KOTM 282122Z 2821/0118 14008KT 2SM -SN SCT015 OVC022
     FM010100 15008KT P6SM OVC025
     FM011400 24006KT P6SM OVC018=



000
FTUS43 KDMX 282122 AAB
TAFOTM
TAF AMD
KOTM 282122Z 2821/0118 14008KT 2SM -SN SCT015 OVC022
     FM010100 15008KT P6SM OVC025
     FM011400 24006KT P6SM OVC018=



000
FTUS43 KDMX 282055 AAA
TAFOTM
TAF AMD
KOTM 282055Z 2821/0118 14008KT 3SM -SN SCT015 OVC025
     FM010100 15008KT P6SM OVC025
     FM011400 24006KT P6SM OVC018=



000
FTUS43 KDMX 282055 AAA
TAFOTM
TAF AMD
KOTM 282055Z 2821/0118 14008KT 3SM -SN SCT015 OVC025
     FM010100 15008KT P6SM OVC025
     FM011400 24006KT P6SM OVC018=



000
FTUS43 KDMX 282055 AAA
TAFOTM
TAF AMD
KOTM 282055Z 2821/0118 14008KT 3SM -SN SCT015 OVC025
     FM010100 15008KT P6SM OVC025
     FM011400 24006KT P6SM OVC018=



000
FTUS43 KDMX 281730
TAFFOD
TAF
KFOD 281730Z 2818/0118 17009KT P6SM SKC
     FM281900 17010KT P6SM BKN060
     FM282200 16008KT P6SM OVC022
     FM010600 19006KT P6SM SCT020 BKN050
     FM011500 24006KT P6SM BKN120=



000
FTUS43 KDMX 281730
TAFMCW
TAF
KMCW 281730Z 2818/0118 16011KT P6SM SKC
     FM282000 16012KT P6SM SCT025 BKN050
     FM282300 16011KT P6SM BKN025
     FM010800 21008KT P6SM SCT025 BKN040
     FM011500 26009KT P6SM BKN120=



000
FTUS43 KDMX 281730
TAFALO
TAF
KALO 281730Z 2818/0118 15010KT P6SM SKC
     FM282000 15010KT P6SM SCT022 BKN040
     FM282300 16008KT P6SM OVC022
     FM011500 24007KT P6SM OVC020=



000
FTUS43 KDMX 281730
TAFOTM
TAF
KOTM 281730Z 2818/0118 14008KT P6SM SCT080 BKN150
     FM282000 14008KT P6SM SCT040 BKN080
     FM282200 13007KT 3SM -SN SCT015 OVC025
     FM010100 15008KT P6SM OVC025
     FM011400 24006KT P6SM OVC018=



000
FTUS43 KDMX 281730
TAFMCW
TAF
KMCW 281730Z 2818/0118 16011KT P6SM SKC
     FM282000 16012KT P6SM SCT025 BKN050
     FM282300 16011KT P6SM BKN025
     FM010800 21008KT P6SM SCT025 BKN040
     FM011500 26009KT P6SM BKN120=



000
FTUS43 KDMX 281730
TAFDSM
TAF
KDSM 281730Z 2818/0118 16008KT P6SM SCT050 BKN150
     FM282200 15008KT 3SM -SN BKN025 OVC060
     FM010100 16007KT P6SM OVC025
     FM011500 25008KT P6SM BKN030=



000
FTUS43 KDMX 281730
TAFFOD
TAF
KFOD 281730Z 2818/0118 17009KT P6SM SKC
     FM281900 17010KT P6SM BKN060
     FM282200 16008KT P6SM OVC022
     FM010600 19006KT P6SM SCT020 BKN050
     FM011500 24006KT P6SM BKN120=



000
FTUS43 KDMX 281730
TAFFOD
TAF
KFOD 281730Z 2818/0118 17009KT P6SM SKC
     FM281900 17010KT P6SM BKN060
     FM282200 16008KT P6SM OVC022
     FM010600 19006KT P6SM SCT020 BKN050
     FM011500 24006KT P6SM BKN120=



000
FTUS43 KDMX 281730
TAFMCW
TAF
KMCW 281730Z 2818/0118 16011KT P6SM SKC
     FM282000 16012KT P6SM SCT025 BKN050
     FM282300 16011KT P6SM BKN025
     FM010800 21008KT P6SM SCT025 BKN040
     FM011500 26009KT P6SM BKN120=



000
FTUS43 KDMX 281730
TAFOTM
TAF
KOTM 281730Z 2818/0118 14008KT P6SM SCT080 BKN150
     FM282000 14008KT P6SM SCT040 BKN080
     FM282200 13007KT 3SM -SN SCT015 OVC025
     FM010100 15008KT P6SM OVC025
     FM011400 24006KT P6SM OVC018=



000
FTUS43 KDMX 281730
TAFFOD
TAF
KFOD 281730Z 2818/0118 17009KT P6SM SKC
     FM281900 17010KT P6SM BKN060
     FM282200 16008KT P6SM OVC022
     FM010600 19006KT P6SM SCT020 BKN050
     FM011500 24006KT P6SM BKN120=



000
FTUS43 KDMX 281730
TAFALO
TAF
KALO 281730Z 2818/0118 15010KT P6SM SKC
     FM282000 15010KT P6SM SCT022 BKN040
     FM282300 16008KT P6SM OVC022
     FM011500 24007KT P6SM OVC020=



000
FTUS43 KDMX 281730
TAFOTM
TAF
KOTM 281730Z 2818/0118 14008KT P6SM SCT080 BKN150
     FM282000 14008KT P6SM SCT040 BKN080
     FM282200 13007KT 3SM -SN SCT015 OVC025
     FM010100 15008KT P6SM OVC025
     FM011400 24006KT P6SM OVC018=



000
FTUS43 KDMX 281730
TAFMCW
TAF
KMCW 281730Z 2818/0118 16011KT P6SM SKC
     FM282000 16012KT P6SM SCT025 BKN050
     FM282300 16011KT P6SM BKN025
     FM010800 21008KT P6SM SCT025 BKN040
     FM011500 26009KT P6SM BKN120=



000
FTUS43 KDMX 281730
TAFDSM
TAF
KDSM 281730Z 2818/0118 16008KT P6SM SCT050 BKN150
     FM282200 15008KT 3SM -SN BKN025 OVC060
     FM010100 16007KT P6SM OVC025
     FM011500 25008KT P6SM BKN030=



000
FTUS43 KDMX 281730
TAFDSM
TAF
KDSM 281730Z 2818/0118 16008KT P6SM SCT050 BKN150
     FM282200 15008KT 3SM -SN BKN025 OVC060
     FM010100 16007KT P6SM OVC025
     FM011500 25008KT P6SM BKN030=



000
FTUS43 KDMX 281730
TAFALO
TAF
KALO 281730Z 2818/0118 15010KT P6SM SKC
     FM282000 15010KT P6SM SCT022 BKN040
     FM282300 16008KT P6SM OVC022
     FM011500 24007KT P6SM OVC020=



000
FTUS43 KDMX 281730
TAFDSM
TAF
KDSM 281730Z 2818/0118 16008KT P6SM SCT050 BKN150
     FM282200 15008KT 3SM -SN BKN025 OVC060
     FM010100 16007KT P6SM OVC025
     FM011500 25008KT P6SM BKN030=



000
FTUS43 KDMX 281730
TAFOTM
TAF
KOTM 281730Z 2818/0118 14008KT P6SM SCT080 BKN150
     FM282000 14008KT P6SM SCT040 BKN080
     FM282200 13007KT 3SM -SN SCT015 OVC025
     FM010100 15008KT P6SM OVC025
     FM011400 24006KT P6SM OVC018=



000
FTUS43 KDMX 281730
TAFALO
TAF
KALO 281730Z 2818/0118 15010KT P6SM SKC
     FM282000 15010KT P6SM SCT022 BKN040
     FM282300 16008KT P6SM OVC022
     FM011500 24007KT P6SM OVC020=



000
FTUS43 KDMX 281140
TAFALO
TAF
KALO 281140Z 2812/0112 14004KT P6SM SKC
     FM282000 16010KT P6SM SCT022 BKN040
     FM282300 16009KT P6SM OVC022=



000
FTUS43 KDMX 281140
TAFOTM
TAF
KOTM 281140Z 2812/0112 13006KT P6SM SCT050 BKN090
     FM281600 14008KT P6SM SCT015 BKN040
     FM281900 15010KT 3SM -SN OVC017
     FM282300 15009KT 5SM -SN BR OVC012=



000
FTUS43 KDMX 281140
TAFDSM
TAF
KDSM 281140Z 2812/0112 14007KT P6SM SCT060
     FM281600 16009KT P6SM SCT022 BKN040
     FM281900 16010KT 5SM -SN OVC017
     FM010200 16008KT 3SM -SN BR OVC015=



000
FTUS43 KDMX 281140
TAFMCW
TAF
KMCW 281140Z 2812/0112 17007KT P6SM SKC
     FM282000 17012KT P6SM SCT025 BKN050
     FM282300 17011KT P6SM BKN025
     FM010800 20008KT P6SM SCT025=



000
FTUS43 KDMX 281140
TAFFOD
TAF
KFOD 281140Z 2812/0112 16005KT P6SM SCT120
     FM281900 17011KT P6SM BKN035
     FM282200 17010KT P6SM OVC022
     FM010600 17008KT P6SM SCT030=



000
FTUS43 KDMX 280528
TAFDSM
TAF
KDSM 280528Z 2806/0106 14007KT P6SM FEW250
     FM281500 14008KT P6SM BKN060 OVC250
     FM281900 15008KT P6SM SCT015 BKN040
     FM282100 16010G13KT 5SM -SN OVC017
     FM010200 16010KT 3SM BR OVC015=



000
FTUS43 KDMX 280528
TAFALO
TAF
KALO 280528Z 2806/0106 12003KT P6SM SKC
     FM281400 14008KT P6SM SCT100
     FM281800 14008KT P6SM BKN080
     FM282000 16008KT P6SM SCT011 BKN040
     FM282300 16010G13KT P6SM VCSH OVC022=



000
FTUS43 KDMX 280528
TAFOTM
TAF
KOTM 280528Z 2806/0106 11004KT P6SM SCT150 BKN250
     FM281300 14008KT P6SM BKN080 OVC150
     FM281800 15008KT P6SM SCT015 BKN040
     FM282000 15010G13KT 5SM -SN OVC017
     FM282300 15009KT 3SM -SN OVC010=



000
FTUS43 KDMX 280528
TAFMCW
TAF
KMCW 280528Z 2806/0106 18004KT P6SM SKC
     FM281700 16010KT P6SM SCT150
     FM282000 17011KT P6SM SCT025 BKN080
     FM282300 17011KT P6SM BKN025 OVC060
     FM010100 18011KT P6SM BKN018 OVC025=



000
FTUS43 KDMX 280528
TAFFOD
TAF
KFOD 280528Z 2806/0106 11003KT P6SM SKC
     FM281300 17009KT P6SM SCT100
     FM281500 14008KT P6SM BKN080
     FM281800 16008KT P6SM SCT011 BKN040
     FM282200 16010KT P6SM VCSH OVC022=



000
FTUS43 KDMX 280528
TAFMCW
TAF
KMCW 280528Z 2806/0106 18004KT P6SM SKC
     FM281700 16010KT P6SM SCT150
     FM282000 17011KT P6SM SCT025 BKN080
     FM282300 17011KT P6SM BKN025 OVC060
     FM010100 18011KT P6SM BKN018 OVC025=



000
FTUS43 KDMX 280528
TAFDSM
TAF
KDSM 280528Z 2806/0106 14007KT P6SM FEW250
     FM281500 14008KT P6SM BKN060 OVC250
     FM281900 15008KT P6SM SCT015 BKN040
     FM282100 16010G13KT 5SM -SN OVC017
     FM010200 16010KT 3SM BR OVC015=



000
FTUS43 KDMX 280528
TAFFOD
TAF
KFOD 280528Z 2806/0106 11003KT P6SM SKC
     FM281300 17009KT P6SM SCT100
     FM281500 14008KT P6SM BKN080
     FM281800 16008KT P6SM SCT011 BKN040
     FM282200 16010KT P6SM VCSH OVC022=



000
FTUS43 KDMX 280528
TAFOTM
TAF
KOTM 280528Z 2806/0106 11004KT P6SM SCT150 BKN250
     FM281300 14008KT P6SM BKN080 OVC150
     FM281800 15008KT P6SM SCT015 BKN040
     FM282000 15010G13KT 5SM -SN OVC017
     FM282300 15009KT 3SM -SN OVC010=



000
FTUS43 KDMX 280528
TAFALO
TAF
KALO 280528Z 2806/0106 12003KT P6SM SKC
     FM281400 14008KT P6SM SCT100
     FM281800 14008KT P6SM BKN080
     FM282000 16008KT P6SM SCT011 BKN040
     FM282300 16010G13KT P6SM VCSH OVC022=



000
FTUS43 KDMX 272329
TAFMCW
TAF
KMCW 272329Z 2800/2824 20004KT P6SM SKC
     FM281500 16010KT P6SM SCT150
     FM282100 14008KT P6SM BKN080=



000
FTUS43 KDMX 272329
TAFFOD
TAF
KFOD 272329Z 2800/2824 16003KT P6SM SKC
     FM281300 17009KT P6SM SCT100
     FM281500 14008KT P6SM BKN080
     FM281800 16008KT P6SM SCT011 BKN040
     FM282200 16010G13KT P6SM VCSH OVC022=



000
FTUS43 KDMX 272329
TAFALO
TAF
KALO 272329Z 2800/2824 19002KT P6SM SKC
     FM281400 14008KT P6SM SCT100
     FM281800 14008KT P6SM BKN080
     FM282000 16008KT P6SM SCT011 BKN040
     FM282300 16010G13KT P6SM VCSH OVC022=



000
FTUS43 KDMX 272329
TAFDSM
TAF
KDSM 272329Z 2800/2824 14004KT P6SM FEW250
     FM281700 14008KT P6SM BKN080 OVC250
     FM281900 15008KT P6SM SCT015 BKN040
     FM282100 16010G13KT 5SM -SN OVC017=



000
FTUS43 KDMX 272329
TAFOTM
TAF
KOTM 272329Z 2800/2824 VRB04KT P6SM SCT250
     FM280100 15004KT P6SM SCT150 BKN250
     FM281500 14008KT P6SM BKN080 OVC150
     FM281800 15008KT P6SM SCT015 BKN040
     FM282100 16010G13KT 5SM -SN OVC017=



000
FTUS43 KDMX 272329
TAFOTM
TAF
KOTM 272329Z 2800/2824 VRB04KT P6SM SCT250
     FM280100 15004KT P6SM SCT150 BKN250
     FM281500 14008KT P6SM BKN080 OVC150
     FM281800 15008KT P6SM SCT015 BKN040
     FM282100 16010G13KT 5SM -SN OVC017=



000
FTUS43 KDMX 272329
TAFMCW
TAF
KMCW 272329Z 2800/2824 20004KT P6SM SKC
     FM281500 16010KT P6SM SCT150
     FM282100 14008KT P6SM BKN080=



000
FTUS43 KDMX 272329
TAFALO
TAF
KALO 272329Z 2800/2824 19002KT P6SM SKC
     FM281400 14008KT P6SM SCT100
     FM281800 14008KT P6SM BKN080
     FM282000 16008KT P6SM SCT011 BKN040
     FM282300 16010G13KT P6SM VCSH OVC022=



000
FTUS43 KDMX 272329
TAFFOD
TAF
KFOD 272329Z 2800/2824 16003KT P6SM SKC
     FM281300 17009KT P6SM SCT100
     FM281500 14008KT P6SM BKN080
     FM281800 16008KT P6SM SCT011 BKN040
     FM282200 16010G13KT P6SM VCSH OVC022=



000
FTUS43 KDMX 272329
TAFDSM
TAF
KDSM 272329Z 2800/2824 14004KT P6SM FEW250
     FM281700 14008KT P6SM BKN080 OVC250
     FM281900 15008KT P6SM SCT015 BKN040
     FM282100 16010G13KT 5SM -SN OVC017=



000
FTUS43 KDMX 271733
TAFMCW
TAF
KMCW 271733Z 2718/2818 28005KT P6SM SCT008
     FM280000 20004KT P6SM SKC
     FM281500 16010KT P6SM SCT150=



000
FTUS43 KDMX 271733
TAFALO
TAF
KALO 271733Z 2718/2818 VRB04KT P6SM SCT009
     FM280000 19002KT P6SM SKC
     FM281500 14008KT P6SM SCT100=



000
FTUS43 KDMX 271733
TAFOTM
TAF
KOTM 271733Z 2718/2818 VRB04KT P6SM FEW011 SCT250
     FM280100 15004KT P6SM SCT150 BKN250
     FM281300 14008KT P6SM BKN080=



000
FTUS43 KDMX 271733
TAFFOD
TAF
KFOD 271733Z 2718/2818 VRB05KT P6SM SCT008
     FM280000 16003KT P6SM SKC
     FM281500 17009KT P6SM SCT100=



000
FTUS43 KDMX 271733
TAFDSM
TAF
KDSM 271733Z 2718/2818 VRB05KT P6SM FEW011 SCT250
     FM280000 15004KT P6SM BKN250
     FM281400 14008KT P6SM BKN080=



000
FTUS43 KDMX 271733
TAFFOD
TAF
KFOD 271733Z 2718/2818 VRB05KT P6SM SCT008
     FM280000 16003KT P6SM SKC
     FM281500 17009KT P6SM SCT100=



000
FTUS43 KDMX 271733
TAFOTM
TAF
KOTM 271733Z 2718/2818 VRB04KT P6SM FEW011 SCT250
     FM280100 15004KT P6SM SCT150 BKN250
     FM281300 14008KT P6SM BKN080=



000
FTUS43 KDMX 271733
TAFMCW
TAF
KMCW 271733Z 2718/2818 28005KT P6SM SCT008
     FM280000 20004KT P6SM SKC
     FM281500 16010KT P6SM SCT150=



000
FTUS43 KDMX 271733
TAFALO
TAF
KALO 271733Z 2718/2818 VRB04KT P6SM SCT009
     FM280000 19002KT P6SM SKC
     FM281500 14008KT P6SM SCT100=



000
FTUS43 KDMX 271733
TAFDSM
TAF
KDSM 271733Z 2718/2818 VRB05KT P6SM FEW011 SCT250
     FM280000 15004KT P6SM BKN250
     FM281400 14008KT P6SM BKN080=



000
FTUS43 KDMX 271124
TAFALO
TAF
KALO 271124Z 2712/2812 30004KT P6SM SKC
     FM271900 23005KT P6SM SCT009
     FM280000 19004KT P6SM SKC=



000
FTUS43 KDMX 271124
TAFDSM
TAF
KDSM 271124Z 2712/2812 30005KT P6SM SKC
     FM271900 24005KT P6SM SCT008
     FM280000 15004KT P6SM SKC=



000
FTUS43 KDMX 271124
TAFDSM
TAF
KDSM 271124Z 2712/2812 30005KT P6SM SKC
     FM271900 24005KT P6SM SCT008
     FM280000 15004KT P6SM SKC=



000
FTUS43 KDMX 271124
TAFMCW
TAF
KMCW 271124Z 2712/2812 28006KT P6SM SKC
     FM271700 25007KT P6SM SCT009
     FM280000 20004KT P6SM SKC=



000
FTUS43 KDMX 271124
TAFFOD
TAF
KFOD 271124Z 2712/2812 VRB04KT P6SM SKC
     FM271800 23005KT P6SM SCT008
     FM280000 17004KT P6SM SKC=



000
FTUS43 KDMX 271124
TAFOTM
TAF
KOTM 271124Z 2712/2812 30006KT P6SM SKC
     FM272000 25005KT P6SM SCT008
     FM280100 15005KT P6SM SCT200=



000
FTUS43 KDMX 271124
TAFOTM
TAF
KOTM 271124Z 2712/2812 30006KT P6SM SKC
     FM272000 25005KT P6SM SCT008
     FM280100 15005KT P6SM SCT200=



000
FTUS43 KDMX 271124
TAFALO
TAF
KALO 271124Z 2712/2812 30004KT P6SM SKC
     FM271900 23005KT P6SM SCT009
     FM280000 19004KT P6SM SKC=



000
FTUS43 KDMX 270521
TAFALO
TAF
KALO 270521Z 2706/2806 29004KT P6SM SKC
     FM271900 24005KT P6SM FEW012
     FM280000 19004KT P6SM SKC=



000
FTUS43 KDMX 270521
TAFOTM
TAF
KOTM 270521Z 2706/2806 30006KT P6SM SKC
     FM272100 23005KT P6SM FEW015
     FM280100 15005KT P6SM SCT200=



000
FTUS43 KDMX 270521
TAFFOD
TAF
KFOD 270521Z 2706/2806 VRB02KT P6SM SKC
     FM271800 23005KT P6SM SCT012
     FM280000 17004KT P6SM SKC=



000
FTUS43 KDMX 270521
TAFMCW
TAF
KMCW 270521Z 2706/2806 28007KT P6SM SKC
     FM271700 24007KT P6SM FEW011
     FM280000 19004KT P6SM SKC=



000
FTUS43 KDMX 270521
TAFDSM
TAF
KDSM 270521Z 2706/2806 30004KT P6SM SKC
     FM271900 24006KT P6SM SCT013
     FM280000 14004KT P6SM SKC=



000
FTUS43 KDMX 270521
TAFALO
TAF
KALO 270521Z 2706/2806 29004KT P6SM SKC
     FM271900 24005KT P6SM FEW012
     FM280000 19004KT P6SM SKC=



000
FTUS43 KDMX 270521
TAFFOD
TAF
KFOD 270521Z 2706/2806 VRB02KT P6SM SKC
     FM271800 23005KT P6SM SCT012
     FM280000 17004KT P6SM SKC=



000
FTUS43 KDMX 270521
TAFDSM
TAF
KDSM 270521Z 2706/2806 30004KT P6SM SKC
     FM271900 24006KT P6SM SCT013
     FM280000 14004KT P6SM SKC=



000
FTUS43 KDMX 270521
TAFMCW
TAF
KMCW 270521Z 2706/2806 28007KT P6SM SKC
     FM271700 24007KT P6SM FEW011
     FM280000 19004KT P6SM SKC=



000
FTUS43 KDMX 270521
TAFALO
TAF
KALO 270521Z 2706/2806 29004KT P6SM SKC
     FM271900 24005KT P6SM FEW012
     FM280000 19004KT P6SM SKC=



000
FTUS43 KDMX 270521
TAFMCW
TAF
KMCW 270521Z 2706/2806 28007KT P6SM SKC
     FM271700 24007KT P6SM FEW011
     FM280000 19004KT P6SM SKC=



000
FTUS43 KDMX 270521
TAFOTM
TAF
KOTM 270521Z 2706/2806 30006KT P6SM SKC
     FM272100 23005KT P6SM FEW015
     FM280100 15005KT P6SM SCT200=



000
FTUS43 KDMX 270521
TAFDSM
TAF
KDSM 270521Z 2706/2806 30004KT P6SM SKC
     FM271900 24006KT P6SM SCT013
     FM280000 14004KT P6SM SKC=



000
FTUS43 KDMX 270521
TAFFOD
TAF
KFOD 270521Z 2706/2806 VRB02KT P6SM SKC
     FM271800 23005KT P6SM SCT012
     FM280000 17004KT P6SM SKC=



000
FTUS43 KDMX 270521
TAFALO
TAF
KALO 270521Z 2706/2806 29004KT P6SM SKC
     FM271900 24005KT P6SM FEW012
     FM280000 19004KT P6SM SKC=



000
FTUS43 KDMX 270521
TAFOTM
TAF
KOTM 270521Z 2706/2806 30006KT P6SM SKC
     FM272100 23005KT P6SM FEW015
     FM280100 15005KT P6SM SCT200=



000
FTUS43 KDMX 262322
TAFMCW
TAF
KMCW 262322Z 2700/2724 32008KT P6SM SKC
     FM271100 28004KT P6SM SKC
     FM271700 24008KT P6SM FEW013=



000
FTUS43 KDMX 262322
TAFOTM
TAF
KOTM 262322Z 2700/2724 32013KT P6SM SKC
     FM270200 31007KT P6SM SKC
     FM272000 21005KT P6SM FEW015=



000
FTUS43 KDMX 262322
TAFDSM
TAF
KDSM 262322Z 2700/2724 32011KT P6SM -SN SCT025
     FM270300 30005KT P6SM SKC
     FM271900 25006KT P6SM SCT014=



000
FTUS43 KDMX 262322
TAFFOD
TAF
KFOD 262322Z 2700/2724 33007KT P6SM SCT013
      TEMPO 2700/2702 5SM -SN BKN013
     FM270500 VRB03KT P6SM SKC
     FM271800 23005KT P6SM SCT012=



000
FTUS43 KDMX 262322
TAFOTM
TAF
KOTM 262322Z 2700/2724 32013KT P6SM SKC
     FM270200 31007KT P6SM SKC
     FM272000 21005KT P6SM FEW015=



000
FTUS43 KDMX 262322
TAFALO
TAF
KALO 262322Z 2700/2724 32009KT P6SM SKC
     FM270700 VRB03KT P6SM SKC
     FM271800 24005KT P6SM SKC=



000
FTUS43 KDMX 262322
TAFMCW
TAF
KMCW 262322Z 2700/2724 32008KT P6SM SKC
     FM271100 28004KT P6SM SKC
     FM271700 24008KT P6SM FEW013=



000
FTUS43 KDMX 262322
TAFFOD
TAF
KFOD 262322Z 2700/2724 33007KT P6SM SCT013
      TEMPO 2700/2702 5SM -SN BKN013
     FM270500 VRB03KT P6SM SKC
     FM271800 23005KT P6SM SCT012=



000
FTUS43 KDMX 262322
TAFDSM
TAF
KDSM 262322Z 2700/2724 32011KT P6SM -SN SCT025
     FM270300 30005KT P6SM SKC
     FM271900 25006KT P6SM SCT014=



000
FTUS43 KDMX 262322
TAFALO
TAF
KALO 262322Z 2700/2724 32009KT P6SM SKC
     FM270700 VRB03KT P6SM SKC
     FM271800 24005KT P6SM SKC=



000
FTUS43 KDMX 262322
TAFOTM
TAF
KOTM 262322Z 2700/2724 32013KT P6SM SKC
     FM270200 31007KT P6SM SKC
     FM272000 21005KT P6SM FEW015=



000
FTUS43 KDMX 262322
TAFMCW
TAF
KMCW 262322Z 2700/2724 32008KT P6SM SKC
     FM271100 28004KT P6SM SKC
     FM271700 24008KT P6SM FEW013=



000
FTUS43 KDMX 262322
TAFDSM
TAF
KDSM 262322Z 2700/2724 32011KT P6SM -SN SCT025
     FM270300 30005KT P6SM SKC
     FM271900 25006KT P6SM SCT014=



000
FTUS43 KDMX 262322
TAFFOD
TAF
KFOD 262322Z 2700/2724 33007KT P6SM SCT013
      TEMPO 2700/2702 5SM -SN BKN013
     FM270500 VRB03KT P6SM SKC
     FM271800 23005KT P6SM SCT012=



000
FTUS43 KDMX 262322
TAFFOD
TAF
KFOD 262322Z 2700/2724 33007KT P6SM SCT013
      TEMPO 2700/2702 5SM -SN BKN013
     FM270500 VRB03KT P6SM SKC
     FM271800 23005KT P6SM SCT012=



000
FTUS43 KDMX 262322
TAFMCW
TAF
KMCW 262322Z 2700/2724 32008KT P6SM SKC
     FM271100 28004KT P6SM SKC
     FM271700 24008KT P6SM FEW013=



000
FTUS43 KDMX 262322
TAFALO
TAF
KALO 262322Z 2700/2724 32009KT P6SM SKC
     FM270700 VRB03KT P6SM SKC
     FM271800 24005KT P6SM SKC=



    US Dept of Commerce
    National Oceanic and Atmospheric Administration
    National Weather Service
    1325 East West Highway
    Silver Spring, MD 20910
    Page Author: NWS Internet Services Team
Disclaimer
Information Quality
Credits
Glossary
Privacy Policy
Freedom of Information Act (FOIA)
About Us
Career Opportunities